createdAt,value
2019-03-04T00:01:43.613Z,72.92
2019-03-04T00:04:08.082Z,72.46
2019-03-04T00:06:33.862Z,72.25
2019-03-04T00:08:58.414Z,72.23
2019-03-04T00:11:22.998Z,72.46
2019-03-04T00:13:47.547Z,71.92
2019-03-04T00:16:12.309Z,71.91
2019-03-04T00:18:36.812Z,72.18
2019-03-04T00:21:03.013Z,72.57
2019-03-04T00:23:27.705Z,73.05
2019-03-04T00:25:52.093Z,72.98
2019-03-04T00:28:17.706Z,72.67
2019-03-04T00:30:42.315Z,72.91
2019-03-04T00:33:06.809Z,72.87
2019-03-04T00:35:31.388Z,73.14
2019-03-04T00:37:56.098Z,72.99
2019-03-04T00:40:20.756Z,72.77
2019-03-04T00:42:47.975Z,72.92
2019-03-04T00:45:14.828Z,72.43
2019-03-04T00:47:43.736Z,71.83
2019-03-04T00:50:18.187Z,71.80
2019-03-04T00:52:53.544Z,72.08
2019-03-04T00:55:10.977Z,71.28
2019-03-04T00:57:36.734Z,71.27
2019-03-04T01:00:02.639Z,72.22
2019-03-04T01:02:27.130Z,71.57
2019-03-04T01:04:53.340Z,71.62
2019-03-04T01:07:30.372Z,72.68
2019-03-04T01:09:58.327Z,72.70
2019-03-04T01:12:28.909Z,72.73
2019-03-04T01:15:06.490Z,72.64
2019-03-04T01:17:30.728Z,72.48
2019-03-04T01:19:59.582Z,72.38
2019-03-04T01:22:25.762Z,72.71
2019-03-04T01:24:50.242Z,72.50
2019-03-04T01:27:16.652Z,72.16
2019-03-04T01:29:47.079Z,72.29
2019-03-04T01:32:20.766Z,71.87
2019-03-04T01:34:49.724Z,72.65
2019-03-04T01:37:22.166Z,72.17
2019-03-04T01:39:43.032Z,72.18
2019-03-04T01:42:07.444Z,72.79
2019-03-04T01:44:56.769Z,72.79
2019-03-04T01:47:27.130Z,72.12
2019-03-04T01:50:01.126Z,72.00
2019-03-04T01:52:33.019Z,71.67
2019-03-04T01:55:22.148Z,71.50
2019-03-04T01:57:50.131Z,71.69
2019-03-04T02:00:31.019Z,71.37
2019-03-04T02:02:56.787Z,70.86
2019-03-04T02:05:26.191Z,71.02
2019-03-04T02:07:54.361Z,71.29
2019-03-04T02:10:25.842Z,71.43
2019-03-04T02:12:58.987Z,71.38
2019-03-04T02:15:26.803Z,71.54
2019-03-04T02:17:55.510Z,71.71
2019-03-04T02:20:31.814Z,71.61
2019-03-04T02:23:08.005Z,71.82
2019-03-04T02:25:51.089Z,71.67
2019-03-04T02:28:21.695Z,71.45
2019-03-04T02:30:42.502Z,71.55
2019-03-04T02:33:09.009Z,71.80
2019-03-04T02:35:36.603Z,71.04
2019-03-04T02:38:05.805Z,71.05
2019-03-04T02:40:31.085Z,71.54
2019-03-04T02:43:10.504Z,71.64
2019-03-04T02:45:23.720Z,71.31
2019-03-04T02:47:48.774Z,71.17
2019-03-04T02:50:18.180Z,72.00
2019-03-04T02:52:45.118Z,71.25
2019-03-04T02:55:09.585Z,71.26
2019-03-04T02:57:34.089Z,71.08
2019-03-04T02:59:58.669Z,70.55
2019-03-04T03:02:23.120Z,70.86
2019-03-04T03:04:48.686Z,70.03
2019-03-04T03:07:13.040Z,70.63
2019-03-04T03:09:37.472Z,70.16
2019-03-04T03:12:04.132Z,70.16
2019-03-04T03:14:46.297Z,70.55
2019-03-04T03:17:17.587Z,70.27
2019-03-04T03:19:48.980Z,69.85
2019-03-04T03:22:13.685Z,69.57
2019-03-04T03:24:42.901Z,69.57
2019-03-04T03:27:10.042Z,69.49
2019-03-04T03:29:34.876Z,68.96
2019-03-04T03:31:59.412Z,69.12
2019-03-04T03:34:24.085Z,69.52
2019-03-04T03:36:53.537Z,68.89
2019-03-04T03:39:21.240Z,69.20
2019-03-04T03:41:45.742Z,68.89
2019-03-04T03:44:10.447Z,68.94
2019-03-04T03:46:34.963Z,68.49
2019-03-04T03:48:59.518Z,68.09
2019-03-04T03:51:24.029Z,68.52
2019-03-04T03:53:48.559Z,68.93
2019-03-04T03:56:13.090Z,69.01
2019-03-04T03:58:37.569Z,68.94
2019-03-04T04:01:02.214Z,68.79
2019-03-04T04:03:26.714Z,68.01
2019-03-04T04:05:51.296Z,67.68
2019-03-04T04:08:18.792Z,67.74
2019-03-04T04:10:43.546Z,67.56
2019-03-04T04:13:08.123Z,67.66
2019-03-04T04:15:32.719Z,67.42
2019-03-04T04:18:00.532Z,67.49
2019-03-04T04:20:33.309Z,66.76
2019-03-04T04:23:03.605Z,67.52
2019-03-04T04:25:38.712Z,67.06
2019-03-04T04:28:11.345Z,66.70
2019-03-04T04:30:37.694Z,66.73
2019-03-04T04:33:05.350Z,66.53
2019-03-04T04:37:18.823Z,66.45
2019-03-04T04:38:20.718Z,66.41
2019-03-04T04:40:46.808Z,65.95
2019-03-04T04:43:20.683Z,66.02
2019-03-04T04:48:44.866Z,66.46
2019-03-04T04:51:11.823Z,66.42
2019-03-04T04:53:43.272Z,66.63
2019-03-04T04:56:07.419Z,66.58
2019-03-04T04:58:43.102Z,65.81
2019-03-04T05:01:04.584Z,66.06
2019-03-04T05:03:33.699Z,66.05
2019-03-04T05:05:59.767Z,66.56
2019-03-04T05:08:24.202Z,66.38
2019-03-04T05:10:48.605Z,66.05
2019-03-04T05:13:13.041Z,65.91
2019-03-04T05:15:37.450Z,66.37
2019-03-04T05:18:01.952Z,66.16
2019-03-04T05:20:27.305Z,65.86
2019-03-04T05:22:51.708Z,65.29
2019-03-04T05:25:16.196Z,65.58
2019-03-04T05:27:40.634Z,65.23
2019-03-04T05:30:08.215Z,65.01
2019-03-04T05:32:32.635Z,64.97
2019-03-04T05:34:57.044Z,65.35
2019-03-04T05:37:21.473Z,65.06
2019-03-04T05:39:45.875Z,64.47
2019-03-04T05:42:10.284Z,64.35
2019-03-04T05:44:34.679Z,64.69
2019-03-04T05:46:59.120Z,64.85
2019-03-04T05:49:23.522Z,65.45
2019-03-04T05:51:47.994Z,65.06
2019-03-04T05:54:12.428Z,65.25
2019-03-04T05:56:37.241Z,64.90
2019-03-04T05:59:01.816Z,64.41
2019-03-04T06:01:28.570Z,64.50
2019-03-04T06:03:56.092Z,64.36
2019-03-04T06:06:40.321Z,64.48
2019-03-04T06:09:07.158Z,64.38
2019-03-04T06:11:31.558Z,64.42
2019-03-04T06:13:55.988Z,64.24
2019-03-04T06:16:20.389Z,63.76
2019-03-04T06:18:44.823Z,63.91
2019-03-04T06:21:09.260Z,63.87
2019-03-04T06:23:33.647Z,63.98
2019-03-04T06:25:58.109Z,63.69
2019-03-04T06:28:22.531Z,63.38
2019-03-04T06:30:46.931Z,64.02
2019-03-04T06:33:11.437Z,63.72
2019-03-04T06:35:35.907Z,63.76
2019-03-04T06:38:00.354Z,63.70
2019-03-04T06:40:25.540Z,63.81
2019-03-04T06:42:50.011Z,63.42
2019-03-04T06:45:16.157Z,63.31
2019-03-04T06:47:40.838Z,62.78
2019-03-04T06:50:11.202Z,62.78
2019-03-04T06:52:35.972Z,63.27
2019-03-04T06:55:03.450Z,63.24
2019-03-04T06:57:28.957Z,62.97
2019-03-04T06:59:56.578Z,63.06
2019-03-04T07:02:26.745Z,62.88
2019-03-04T07:04:56.986Z,62.45
2019-03-04T07:07:21.404Z,62.43
2019-03-04T07:09:45.876Z,62.29
2019-03-04T07:12:10.296Z,62.15
2019-03-04T07:14:34.714Z,62.64
2019-03-04T07:16:59.127Z,62.19
2019-03-04T07:19:26.077Z,62.20
2019-03-04T07:21:50.575Z,61.63
2019-03-04T07:24:15.005Z,61.18
2019-03-04T07:26:39.435Z,61.09
2019-03-04T07:29:04.378Z,60.84
2019-03-04T07:31:28.900Z,60.67
2019-03-04T07:33:53.307Z,60.78
2019-03-04T07:36:17.807Z,60.38
2019-03-04T07:38:44.859Z,60.48
2019-03-04T07:41:09.302Z,59.85
2019-03-04T07:43:33.705Z,60.52
2019-03-04T07:45:58.154Z,60.10
2019-03-04T07:48:22.535Z,60.34
2019-03-04T07:50:46.963Z,59.95
2019-03-04T07:53:11.365Z,59.68
2019-03-04T07:55:35.799Z,59.71
2019-03-04T07:58:00.222Z,59.71
2019-03-04T08:00:24.703Z,59.51
2019-03-04T08:02:49.111Z,59.30
2019-03-04T08:05:14.062Z,59.14
2019-03-04T08:07:59.631Z,59.21
2019-03-04T08:10:32.805Z,59.56
2019-03-04T08:13:00.288Z,59.10
2019-03-04T08:15:24.779Z,58.93
2019-03-04T08:17:49.269Z,59.19
2019-03-04T08:20:14.336Z,58.64
2019-03-04T08:22:38.910Z,58.75
2019-03-04T08:25:03.384Z,58.34
2019-03-04T08:27:27.971Z,58.07
2019-03-04T08:29:52.457Z,57.35
2019-03-04T08:32:16.837Z,56.97
2019-03-04T08:34:41.266Z,56.81
2019-03-04T08:37:05.667Z,56.62
2019-03-04T08:39:30.079Z,56.40
2019-03-04T08:41:54.544Z,56.18
2019-03-04T08:44:18.997Z,55.82
2019-03-04T08:46:43.393Z,55.77
2019-03-04T08:49:07.882Z,55.52
2019-03-04T08:51:32.303Z,54.88
2019-03-04T08:53:56.722Z,55.08
2019-03-04T08:56:21.145Z,55.55
2019-03-04T08:58:45.545Z,55.65
2019-03-04T09:01:10.269Z,58.35
2019-03-04T09:03:34.679Z,73.05
2019-03-04T09:05:59.112Z,80.43
2019-03-04T09:08:23.562Z,80.95
2019-03-04T09:10:47.994Z,81.36
2019-03-04T09:13:12.450Z,81.20
2019-03-04T09:15:36.938Z,80.43
2019-03-04T09:18:01.409Z,80.44
2019-03-04T09:20:25.976Z,78.75
2019-03-04T09:22:50.435Z,79.42
2019-03-04T09:25:35.241Z,78.91
2019-03-04T09:27:59.632Z,79.07
2019-03-04T09:30:24.285Z,78.29
2019-03-04T09:32:48.804Z,78.28
2019-03-04T09:35:15.772Z,78.16
2019-03-04T09:37:41.198Z,78.00
2019-03-04T09:40:08.667Z,78.54
2019-03-04T09:42:33.053Z,78.35
2019-03-04T09:44:57.462Z,77.38
2019-03-04T09:47:21.948Z,77.16
2019-03-04T09:49:46.328Z,77.25
2019-03-04T09:52:10.737Z,76.13
2019-03-04T09:54:35.195Z,76.58
2019-03-04T09:56:59.674Z,75.22
2019-03-04T09:59:24.138Z,75.15
2019-03-04T10:01:50.880Z,74.29
2019-03-04T10:04:20.987Z,73.42
2019-03-04T10:07:06.203Z,73.09
2019-03-04T10:09:54.920Z,73.15
2019-03-04T10:12:40.584Z,72.34
2019-03-04T10:15:20.583Z,71.41
2019-03-04T10:17:56.796Z,72.14
2019-03-04T10:20:53.142Z,71.19
2019-03-04T10:23:29.839Z,70.27
2019-03-04T10:26:22.604Z,70.35
2019-03-04T10:28:49.033Z,69.82
2019-03-04T10:31:19.196Z,69.64
2019-03-04T10:33:52.600Z,69.12
2019-03-04T10:36:23.001Z,68.49
2019-03-04T10:39:22.519Z,67.67
2019-03-04T10:41:48.563Z,67.07
2019-03-04T10:44:21.996Z,66.98
2019-03-04T10:46:57.012Z,66.77
2019-03-04T10:49:21.487Z,66.64
2019-03-04T10:51:45.973Z,65.39
2019-03-04T10:54:10.472Z,65.96
2019-03-04T10:56:34.917Z,64.80
2019-03-04T10:59:00.101Z,64.23
2019-03-04T11:01:30.368Z,63.97
2019-03-04T11:03:50.785Z,63.04
2019-03-04T11:06:15.373Z,63.13
2019-03-04T11:08:39.852Z,62.21
2019-03-04T11:11:04.430Z,62.37
2019-03-04T11:13:28.908Z,62.53
2019-03-04T11:15:53.344Z,62.89
2019-03-04T11:18:17.807Z,61.85
2019-03-04T11:20:42.445Z,62.06
2019-03-04T11:23:07.391Z,61.88
2019-03-04T11:25:32.735Z,61.34
2019-03-04T11:27:57.211Z,61.30
2019-03-04T11:30:24.340Z,60.20
2019-03-04T11:32:48.841Z,59.61
2019-03-04T11:35:14.018Z,59.97
2019-03-04T11:37:38.500Z,60.59
2019-03-04T11:40:04.674Z,59.68
2019-03-04T11:42:29.087Z,58.30
2019-03-04T11:44:53.489Z,57.43
2019-03-04T11:47:19.642Z,56.90
2019-03-04T11:49:44.056Z,56.87
2019-03-04T11:52:08.756Z,56.30
2019-03-04T11:54:33.246Z,56.79
2019-03-04T11:56:57.759Z,55.93
2019-03-04T11:59:22.144Z,52.54
2019-03-04T12:01:48.415Z,52.63
2019-03-04T12:04:12.837Z,53.92
2019-03-04T12:06:37.276Z,52.97
2019-03-04T12:09:01.686Z,52.98
2019-03-04T12:11:26.229Z,51.50
2019-03-04T12:13:50.641Z,51.64
2019-03-04T12:16:15.131Z,49.15
2019-03-04T12:18:40.201Z,51.71
2019-03-04T12:21:04.754Z,51.96
2019-03-04T12:23:29.151Z,51.72
2019-03-04T12:25:53.720Z,51.10
2019-03-04T12:28:18.804Z,52.48
2019-03-04T12:30:43.496Z,53.02
2019-03-04T12:33:07.988Z,54.90
2019-03-04T12:35:32.449Z,65.16
2019-03-04T12:37:56.873Z,69.10
2019-03-04T12:40:23.381Z,69.48
2019-03-04T12:42:47.889Z,68.65
2019-03-04T12:45:18.404Z,67.35
2019-03-04T12:47:43.286Z,54.97
2019-03-04T12:50:13.422Z,61.58
2019-03-04T12:52:37.849Z,59.16
2019-03-04T12:55:02.298Z,57.65
2019-03-04T12:57:26.856Z,52.45
2019-03-04T12:59:51.255Z,45.26
2019-03-04T13:02:15.694Z,46.75
2019-03-04T13:04:40.089Z,46.25
2019-03-04T13:07:04.660Z,49.12
2019-03-04T13:09:29.242Z,54.88
2019-03-04T13:11:53.831Z,56.56
2019-03-04T13:14:18.301Z,57.18
2019-03-04T13:16:42.798Z,57.66
2019-03-04T13:19:07.278Z,57.09
2019-03-04T13:21:31.719Z,58.29
2019-03-04T13:23:56.192Z,58.31
2019-03-04T13:26:20.698Z,59.82
2019-03-04T13:28:45.171Z,66.69
2019-03-04T13:31:09.666Z,74.40
2019-03-04T13:33:34.173Z,78.08
2019-03-04T13:35:58.654Z,78.04
2019-03-04T13:38:23.176Z,78.62
2019-03-04T13:40:47.728Z,78.87
2019-03-04T13:43:12.304Z,78.98
2019-03-04T13:45:36.915Z,79.28
2019-03-04T13:48:01.485Z,78.71
2019-03-04T13:50:31.345Z,78.05
2019-03-04T13:52:56.991Z,78.24
2019-03-04T13:55:24.970Z,78.43
2019-03-04T13:57:49.498Z,77.78
2019-03-04T14:00:19.492Z,77.99
2019-03-04T14:02:44.107Z,78.09
2019-03-04T14:05:12.176Z,78.02
2019-03-04T14:07:36.824Z,77.38
2019-03-04T14:10:01.226Z,77.48
2019-03-04T14:12:27.259Z,75.93
2019-03-04T14:14:52.586Z,75.10
2019-03-04T14:17:17.422Z,75.69
2019-03-04T14:19:43.680Z,75.09
2019-03-04T14:22:21.153Z,72.92
2019-03-04T14:24:43.018Z,65.54
2019-03-04T14:27:07.594Z,68.02
2019-03-04T14:29:35.506Z,71.92
2019-03-04T14:32:00.099Z,71.65
2019-03-04T14:34:24.711Z,73.41
2019-03-04T14:36:49.304Z,74.69
2019-03-04T14:39:15.081Z,75.17
2019-03-04T14:41:39.511Z,75.69
2019-03-04T14:44:04.166Z,76.13
2019-03-04T14:46:28.697Z,76.47
2019-03-04T14:48:53.132Z,75.60
2019-03-04T14:51:19.035Z,75.83
2019-03-04T14:53:43.772Z,75.04
2019-03-04T14:56:08.290Z,74.54
2019-03-04T14:58:32.706Z,74.82
2019-03-04T15:00:57.164Z,73.29
2019-03-04T15:03:23.884Z,73.47
2019-03-04T15:05:47.646Z,74.20
2019-03-04T15:08:12.128Z,69.86
2019-03-04T15:10:36.611Z,70.42
2019-03-04T15:13:00.992Z,71.41
2019-03-04T15:15:27.245Z,66.02
2019-03-04T15:17:52.699Z,55.27
2019-03-04T15:20:20.174Z,65.12
2019-03-04T15:22:44.737Z,68.12
2019-03-04T15:25:14.798Z,68.92
2019-03-04T15:27:39.297Z,69.64
2019-03-04T15:30:09.819Z,70.14
2019-03-04T15:32:34.217Z,69.42
2019-03-04T15:34:58.667Z,70.06
2019-03-04T15:37:25.282Z,70.55
2019-03-04T15:39:49.880Z,70.49
2019-03-04T15:42:14.423Z,71.62
2019-03-04T15:44:38.859Z,71.19
2019-03-04T15:47:08.620Z,71.40
2019-03-04T15:49:33.019Z,70.42
2019-03-04T15:51:59.020Z,69.31
2019-03-04T15:54:23.500Z,70.13
2019-03-04T15:56:48.065Z,70.35
2019-03-04T15:59:12.488Z,70.42
2019-03-04T16:01:36.892Z,70.34
2019-03-04T16:04:01.345Z,70.47
2019-03-04T16:06:25.823Z,69.28
2019-03-04T16:08:50.291Z,70.33
2019-03-04T16:11:14.696Z,69.44
2019-03-04T16:13:39.093Z,70.08
2019-03-04T16:16:03.590Z,69.09
2019-03-04T16:18:27.998Z,69.64
2019-03-04T16:20:52.510Z,69.68
2019-03-04T16:23:17.046Z,68.65
2019-03-04T16:25:41.536Z,68.70
2019-03-04T16:28:09.464Z,68.42
2019-03-04T16:30:33.914Z,67.99
2019-03-04T16:32:58.389Z,67.17
2019-03-04T16:35:22.776Z,67.45
2019-03-04T16:37:47.192Z,66.42
2019-03-04T16:40:19.233Z,67.20
2019-03-04T16:42:43.715Z,67.59
2019-03-04T16:45:10.904Z,67.59
2019-03-04T16:47:35.465Z,67.32
2019-03-04T16:49:59.874Z,67.28
2019-03-04T16:52:27.038Z,67.25
2019-03-04T16:54:51.517Z,67.44
2019-03-04T16:57:16.130Z,67.72
2019-03-04T16:59:40.519Z,67.62
2019-03-04T17:02:05.008Z,67.10
2019-03-04T17:04:29.427Z,67.27
2019-03-04T17:06:53.879Z,66.89
2019-03-04T17:09:18.800Z,67.24
2019-03-04T17:11:43.296Z,66.37
2019-03-04T17:14:07.774Z,66.64
2019-03-04T17:16:32.234Z,66.67
2019-03-04T17:18:56.674Z,66.25
2019-03-04T17:21:21.202Z,66.85
2019-03-04T17:23:45.685Z,66.91
2019-03-04T17:26:10.130Z,66.44
2019-03-04T17:28:34.559Z,66.72
2019-03-04T17:30:58.956Z,66.28
2019-03-04T17:33:23.357Z,66.23
2019-03-04T17:35:48.041Z,65.96
2019-03-04T17:38:12.517Z,66.29
2019-03-04T17:40:36.992Z,66.03
2019-03-04T17:43:01.548Z,64.83
2019-03-04T17:45:27.096Z,65.68
2019-03-04T17:47:51.885Z,65.05
2019-03-04T17:50:39.869Z,64.66
2019-03-04T17:53:06.713Z,64.11
2019-03-04T17:55:31.174Z,64.20
2019-03-04T17:57:55.648Z,63.52
2019-03-04T18:00:20.286Z,62.11
2019-03-04T18:02:44.823Z,63.01
2019-03-04T18:05:10.869Z,62.96
2019-03-04T18:07:35.269Z,62.84
2019-03-04T18:09:59.694Z,62.16
2019-03-04T18:12:24.088Z,62.66
2019-03-04T18:14:48.513Z,61.45
2019-03-04T18:17:12.893Z,61.07
2019-03-04T18:19:37.299Z,61.88
2019-03-04T18:22:01.828Z,61.86
2019-03-04T18:24:26.237Z,62.03
2019-03-04T18:26:51.266Z,61.77
2019-03-04T18:29:21.425Z,60.99
2019-03-04T18:32:06.758Z,61.08
2019-03-04T18:34:52.424Z,60.00
2019-03-04T18:37:45.192Z,60.54
2019-03-04T18:40:46.103Z,59.34
2019-03-04T18:43:22.599Z,59.18
2019-03-04T18:46:15.879Z,59.66
2019-03-04T18:48:57.430Z,59.52
2019-03-04T18:51:21.950Z,60.05
2019-03-04T18:53:46.323Z,60.02
2019-03-04T18:56:11.296Z,59.44
2019-03-04T18:58:35.749Z,59.45
2019-03-04T19:01:00.292Z,59.13
2019-03-04T19:03:24.714Z,58.90
2019-03-04T19:05:49.110Z,59.04
2019-03-04T19:08:13.549Z,58.17
2019-03-04T19:10:38.010Z,58.57
2019-03-04T19:13:02.430Z,59.01
2019-03-04T19:15:26.904Z,58.51
2019-03-04T19:17:51.396Z,59.30
2019-03-04T19:20:17.535Z,58.22
2019-03-04T19:22:41.941Z,59.21
2019-03-04T19:25:07.865Z,58.73
2019-03-04T19:27:32.348Z,59.56
2019-03-04T19:29:56.895Z,58.48
2019-03-04T19:32:21.361Z,58.87
2019-03-04T19:34:45.847Z,59.02
2019-03-04T19:37:10.242Z,58.58
2019-03-04T19:39:34.660Z,59.20
2019-03-04T19:41:59.074Z,57.90
2019-03-04T19:44:23.638Z,57.61
2019-03-04T19:46:48.572Z,58.61
2019-03-04T19:49:13.079Z,58.71
2019-03-04T19:51:37.472Z,58.11
2019-03-04T19:54:02.043Z,57.62
2019-03-04T19:56:26.517Z,58.33
2019-03-04T19:58:51.096Z,57.78
2019-03-04T20:01:15.646Z,57.26
2019-03-04T20:03:40.320Z,57.34
2019-03-04T20:06:06.460Z,57.54
2019-03-04T20:08:30.992Z,58.20
2019-03-04T20:10:55.578Z,58.21
2019-03-04T20:13:20.295Z,57.99
2019-03-04T20:15:45.034Z,58.47
2019-03-04T20:18:09.576Z,58.02
2019-03-04T20:20:34.463Z,59.22
2019-03-04T20:22:58.948Z,58.10
2019-03-04T20:25:24.953Z,58.75
2019-03-04T20:27:49.423Z,58.59
2019-03-04T20:30:21.419Z,59.91
2019-03-04T20:32:46.250Z,60.17
2019-03-04T20:35:13.519Z,60.78
2019-03-04T20:37:39.371Z,61.09
2019-03-04T20:40:04.553Z,61.33
2019-03-04T20:42:29.048Z,62.18
2019-03-04T20:44:53.611Z,62.57
2019-03-04T20:47:18.204Z,62.98
2019-03-04T20:49:42.691Z,63.08
2019-03-04T20:52:07.280Z,63.51
2019-03-04T20:54:31.753Z,63.73
2019-03-04T20:56:56.266Z,63.39
2019-03-04T20:59:20.749Z,63.55
2019-03-04T21:01:45.426Z,63.15
2019-03-04T21:04:10.078Z,63.54
2019-03-04T21:06:34.601Z,64.00
2019-03-04T21:08:59.182Z,64.09
2019-03-04T21:11:24.068Z,63.99
2019-03-04T21:13:48.565Z,63.50
2019-03-04T21:16:13.078Z,64.05
2019-03-04T21:18:37.486Z,63.67
2019-03-04T21:21:02.282Z,63.76
2019-03-04T21:23:26.761Z,64.15
2019-03-04T21:25:54.204Z,64.25
2019-03-04T21:28:30.410Z,64.15
2019-03-04T21:31:17.455Z,64.19
2019-03-04T21:34:01.672Z,63.96
2019-03-04T21:36:38.155Z,65.21
2019-03-04T21:39:02.783Z,64.66
2019-03-04T21:41:30.279Z,64.78
2019-03-04T21:44:15.913Z,64.93
2019-03-04T21:46:52.281Z,65.25
2019-03-04T21:49:17.019Z,65.54
2019-03-04T21:52:19.901Z,65.39
2019-03-04T21:54:37.664Z,64.97
2019-03-04T21:57:13.913Z,65.00
2019-03-04T21:59:38.314Z,65.74
2019-03-04T22:02:26.799Z,65.21
2019-03-04T22:04:51.232Z,65.60
2019-03-04T22:07:16.199Z,65.47
2019-03-04T22:09:40.649Z,65.39
2019-03-04T22:12:08.101Z,65.77
2019-03-04T22:14:32.613Z,65.09
2019-03-04T22:16:57.080Z,65.96
2019-03-04T22:19:21.544Z,65.75
2019-03-04T22:21:46.041Z,65.36
2019-03-04T22:24:11.392Z,65.82
2019-03-04T22:26:35.866Z,65.75
2019-03-04T22:29:00.280Z,65.42
2019-03-04T22:31:24.742Z,65.85
2019-03-04T22:33:49.163Z,65.83
2019-03-04T22:36:13.505Z,65.32
2019-03-04T22:38:37.893Z,64.94
2019-03-04T22:41:02.292Z,65.04
2019-03-04T22:43:26.682Z,65.17
2019-03-04T22:45:51.213Z,65.76
2019-03-04T22:48:15.699Z,65.45
2019-03-04T22:50:40.103Z,65.15
2019-03-04T22:53:04.578Z,65.42
2019-03-04T22:55:31.976Z,65.24
2019-03-04T22:57:56.356Z,65.54
2019-03-04T23:00:54.113Z,65.63
2019-03-04T23:03:19.356Z,65.79
2019-03-04T23:05:45.949Z,65.61
2019-03-04T23:08:10.336Z,65.58
2019-03-04T23:10:40.425Z,65.43
2019-03-04T23:13:08.049Z,65.75
2019-03-04T23:15:32.477Z,65.71
2019-03-04T23:17:56.862Z,66.07
2019-03-04T23:20:21.257Z,65.82
2019-03-04T23:22:45.644Z,65.69
2019-03-04T23:25:12.644Z,65.27
2019-03-04T23:27:37.198Z,65.65
2019-03-04T23:30:01.592Z,65.79
2019-03-04T23:32:26.019Z,65.36
2019-03-04T23:34:50.413Z,65.54
2019-03-04T23:37:14.825Z,66.03
2019-03-04T23:39:39.196Z,65.50
2019-03-04T23:42:03.683Z,65.69
2019-03-04T23:44:28.062Z,65.18
2019-03-04T23:46:52.450Z,65.51
2019-03-04T23:49:16.834Z,65.51
2019-03-04T23:51:41.276Z,65.21
2019-03-04T23:54:05.732Z,65.19
2019-03-04T23:56:30.113Z,65.24
2019-03-04T23:58:54.518Z,64.56
